sensor_id;sensor_type;location;lat;lon;timestamp;pressure;altitude;pressure_sealevel;temperature;humidity
8039;BME280;4062;49.844;8.120;2022-10-04T00:06:30;100082.25;;;16.25;57.22
8039;BME280;4062;49.844;8.120;2022-10-04T00:09:03;100076.94;;;16.25;57.28
8039;BME280;4062;49.844;8.120;2022-10-04T00:11:16;100078.75;;;16.24;57.39
8039;BME280;4062;49.844;8.120;2022-10-04T00:13:24;100084.06;;;16.24;57.38
8039;BME280;4062;49.844;8.120;2022-10-04T00:15:32;100083.16;;;16.25;57.18
8039;BME280;4062;49.844;8.120;2022-10-04T00:17:34;100080.50;;;16.25;57.08
8039;BME280;4062;49.844;8.120;2022-10-04T00:19:54;100088.50;;;16.25;57.23
8039;BME280;4062;49.844;8.120;2022-10-04T00:24:09;100084.94;;;16.25;57.42
8039;BME280;4062;49.844;8.120;2022-10-04T00:30:23;100092.91;;;16.27;57.21
8039;BME280;4062;49.844;8.120;2022-10-04T00:36:45;100087.56;;;16.27;57.31
8039;BME280;4062;49.844;8.120;2022-10-04T00:41:06;100084.00;;;16.26;57.22
8039;BME280;4062;49.844;8.120;2022-10-04T00:43:15;100083.16;;;16.25;57.34
8039;BME280;4062;49.844;8.120;2022-10-04T00:45:46;100076.94;;;16.25;57.18
8039;BME280;4062;49.844;8.120;2022-10-04T00:48:10;100080.50;;;16.25;57.28
8039;BME280;4062;49.844;8.120;2022-10-04T00:52:32;100069.81;;;16.25;57.48
8039;BME280;4062;49.844;8.120;2022-10-04T00:54:43;100063.59;;;16.25;57.23
8039;BME280;4062;49.844;8.120;2022-10-04T00:57:33;100068.94;;;16.25;57.44
8039;BME280;4062;49.844;8.120;2022-10-04T00:59:37;100066.28;;;16.25;57.23
8039;BME280;4062;49.844;8.120;2022-10-04T01:01:39;100060.94;;;16.25;57.22
8039;BME280;4062;49.844;8.120;2022-10-04T01:03:44;100060.94;;;16.25;57.26
8039;BME280;4062;49.844;8.120;2022-10-04T01:05:55;100060.09;;;16.24;57.39
8039;BME280;4062;49.844;8.120;2022-10-04T01:13:03;100062.75;;;16.24;57.22
8039;BME280;4062;49.844;8.120;2022-10-04T01:15:25;100068.94;;;16.25;57.25
8039;BME280;4062;49.844;8.120;2022-10-04T01:17:28;100062.69;;;16.26;57.21
8039;BME280;4062;49.844;8.120;2022-10-04T01:19:31;100057.41;;;16.24;57.43
8039;BME280;4062;49.844;8.120;2022-10-04T01:21:34;100058.28;;;16.25;57.13
8039;BME280;4062;49.844;8.120;2022-10-04T01:24:15;100055.59;;;16.25;57.17
8039;BME280;4062;49.844;8.120;2022-10-04T01:28:30;100060.94;;;16.25;57.35
8039;BME280;4062;49.844;8.120;2022-10-04T01:30:31;100063.59;;;16.25;57.26
8039;BME280;4062;49.844;8.120;2022-10-04T01:32:32;100051.16;;;16.25;57.54
8039;BME280;4062;49.844;8.120;2022-10-04T01:34:33;100051.16;;;16.25;57.21
8039;BME280;4062;49.844;8.120;2022-10-04T01:36:34;100046.75;;;16.24;57.22
8039;BME280;4062;49.844;8.120;2022-10-04T01:38:36;100048.53;;;16.24;57.25
8039;BME280;4062;49.844;8.120;2022-10-04T01:40:52;100050.28;;;16.25;57.54
8039;BME280;4062;49.844;8.120;2022-10-04T01:43:00;100046.75;;;16.24;57.16
8039;BME280;4062;49.844;8.120;2022-10-04T01:45:28;100038.75;;;16.24;57.13
8039;BME280;4062;49.844;8.120;2022-10-04T01:47:37;100031.69;;;16.23;57.26
8039;BME280;4062;49.844;8.120;2022-10-04T01:49:41;100032.53;;;16.24;57.32
8039;BME280;4062;49.844;8.120;2022-10-04T01:52:13;100028.16;;;16.23;57.20
8039;BME280;4062;49.844;8.120;2022-10-04T01:54:19;100034.28;;;16.25;57.17
8039;BME280;4062;49.844;8.120;2022-10-04T01:56:29;100030.75;;;16.24;57.19
8039;BME280;4062;49.844;8.120;2022-10-04T01:58:44;100029.88;;;16.24;57.26
8039;BME280;4062;49.844;8.120;2022-10-04T02:00:55;100027.19;;;16.24;57.18
8039;BME280;4062;49.844;8.120;2022-10-04T02:03:09;100024.53;;;16.24;57.25
8039;BME280;4062;49.844;8.120;2022-10-04T02:05:17;100020.16;;;16.23;57.16
8039;BME280;4062;49.844;8.120;2022-10-04T02:07:19;100018.34;;;16.23;57.20
8039;BME280;4062;49.844;8.120;2022-10-04T02:09:34;100024.53;;;16.24;57.27
8039;BME280;4062;49.844;8.120;2022-10-04T02:11:40;100018.34;;;16.23;57.10
8039;BME280;4062;49.844;8.120;2022-10-04T02:13:43;100003.19;;;16.24;57.26
8039;BME280;4062;49.844;8.120;2022-10-04T02:15:46;99989.00;;;16.23;57.33
8039;BME280;4062;49.844;8.120;2022-10-04T02:17:49;99987.22;;;16.24;57.27
8039;BME280;4062;49.844;8.120;2022-10-04T02:19:50;99991.69;;;16.23;57.39
8039;BME280;4062;49.844;8.120;2022-10-04T02:21:51;99989.00;;;16.23;57.25
8039;BME280;4062;49.844;8.120;2022-10-04T02:23:53;99981.88;;;16.24;57.33
8039;BME280;4062;49.844;8.120;2022-10-04T02:25:54;99975.69;;;16.23;57.26
8039;BME280;4062;49.844;8.120;2022-10-04T02:27:55;99980.09;;;16.24;57.18
8039;BME280;4062;49.844;8.120;2022-10-04T02:30:06;99973.03;;;16.23;57.26
8039;BME280;4062;49.844;8.120;2022-10-04T02:32:08;99975.69;;;16.23;57.27
8039;BME280;4062;49.844;8.120;2022-10-04T02:34:48;99978.34;;;16.23;57.26
8039;BME280;4062;49.844;8.120;2022-10-04T02:36:49;99974.84;;;16.23;57.11
8039;BME280;4062;49.844;8.120;2022-10-04T02:39:25;99982.75;;;16.24;57.14
8039;BME280;4062;49.844;8.120;2022-10-04T02:41:38;99983.69;;;16.23;57.27
8039;BME280;4062;49.844;8.120;2022-10-04T02:44:14;99992.59;;;16.22;57.25
8039;BME280;4062;49.844;8.120;2022-10-04T02:46:28;99995.22;;;16.24;57.22
8039;BME280;4062;49.844;8.120;2022-10-04T02:49:09;100003.19;;;16.24;57.32
8039;BME280;4062;49.844;8.120;2022-10-04T02:51:19;100003.19;;;16.24;57.24
8039;BME280;4062;49.844;8.120;2022-10-04T02:53:30;99998.81;;;16.23;57.32
8039;BME280;4062;49.844;8.120;2022-10-04T02:55:36;99995.28;;;16.22;57.26
8039;BME280;4062;49.844;8.120;2022-10-04T02:57:41;99991.69;;;16.23;57.29
8039;BME280;4062;49.844;8.120;2022-10-04T02:59:42;99981.09;;;16.22;57.24
8039;BME280;4062;49.844;8.120;2022-10-04T03:01:57;99986.34;;;16.23;57.04
8039;BME280;4062;49.844;8.120;2022-10-04T03:03:58;99973.94;;;16.22;57.27
8039;BME280;4062;49.844;8.120;2022-10-04T03:06:07;99984.59;;;16.22;57.26
8039;BME280;4062;49.844;8.120;2022-10-04T03:08:12;99976.63;;;16.22;57.25
8039;BME280;4062;49.844;8.120;2022-10-04T03:10:12;99980.16;;;16.23;57.32
8039;BME280;4062;49.844;8.120;2022-10-04T03:12:15;99973.94;;;16.22;57.19
8039;BME280;4062;49.844;8.120;2022-10-04T03:14:20;99978.41;;;16.22;57.31
8039;BME280;4062;49.844;8.120;2022-10-04T03:16:22;99971.28;;;16.22;57.32
8039;BME280;4062;49.844;8.120;2022-10-04T03:18:24;99983.69;;;16.23;57.20
8039;BME280;4062;49.844;8.120;2022-10-04T03:20:25;99981.03;;;16.23;57.18
8039;BME280;4062;49.844;8.120;2022-10-04T03:22:26;99982.81;;;16.23;57.43
8039;BME280;4062;49.844;8.120;2022-10-04T03:24:33;99983.69;;;16.23;57.31
8039;BME280;4062;49.844;8.120;2022-10-04T03:26:46;99991.69;;;16.23;57.32
8039;BME280;4062;49.844;8.120;2022-10-04T03:28:50;99981.88;;;16.24;57.37
8039;BME280;4062;49.844;8.120;2022-10-04T03:30:51;99999.69;;;16.23;57.12
8039;BME280;4062;49.844;8.120;2022-10-04T03:32:52;99990.81;;;16.23;57.27
8039;BME280;4062;49.844;8.120;2022-10-04T03:35:04;99985.50;;;16.23;57.33
8039;BME280;4062;49.844;8.120;2022-10-04T03:37:14;99983.69;;;16.23;57.23
8039;BME280;4062;49.844;8.120;2022-10-04T03:39:33;99981.09;;;16.22;57.24
8039;BME280;4062;49.844;8.120;2022-10-04T03:41:40;99974.84;;;16.23;57.30
8039;BME280;4062;49.844;8.120;2022-10-04T03:43:44;99977.50;;;16.23;57.30
8039;BME280;4062;49.844;8.120;2022-10-04T03:45:46;99980.16;;;16.23;57.18
8039;BME280;4062;49.844;8.120;2022-10-04T03:47:49;99978.34;;;16.23;57.14
8039;BME280;4062;49.844;8.120;2022-10-04T03:49:53;99977.50;;;16.23;57.20
8039;BME280;4062;49.844;8.120;2022-10-04T03:51:57;99981.09;;;16.22;57.19
8039;BME280;4062;49.844;8.120;2022-10-04T03:54:00;99971.28;;;16.22;57.21
8039;BME280;4062;49.844;8.120;2022-10-04T03:56:23;99983.69;;;16.23;57.30
8039;BME280;4062;49.844;8.120;2022-10-04T03:58:27;99982.81;;;16.23;57.31
8039;BME280;4062;49.844;8.120;2022-10-04T04:00:31;99985.50;;;16.23;57.07
8039;BME280;4062;49.844;8.120;2022-10-04T04:02:49;99985.50;;;16.23;57.20
8039;BME280;4062;49.844;8.120;2022-10-04T04:05:02;99998.81;;;16.23;57.13
8039;BME280;4062;49.844;8.120;2022-10-04T04:09:29;99989.94;;;16.22;57.12
8039;BME280;4062;49.844;8.120;2022-10-04T04:11:33;99981.94;;;16.22;57.25
8039;BME280;4062;49.844;8.120;2022-10-04T04:16:00;99974.88;;;16.21;57.14
8039;BME280;4062;49.844;8.120;2022-10-04T04:18:12;99974.88;;;16.21;57.45
8039;BME280;4062;49.844;8.120;2022-10-04T04:20:35;99973.09;;;16.22;57.33
8039;BME280;4062;49.844;8.120;2022-10-04T04:22:36;99971.28;;;16.22;57.27
8039;BME280;4062;49.844;8.120;2022-10-04T04:24:39;99976.63;;;16.22;57.26
8039;BME280;4062;49.844;8.120;2022-10-04T04:26:53;99971.28;;;16.22;57.17
8039;BME280;4062;49.844;8.120;2022-10-04T04:29:17;99973.94;;;16.22;57.33
8039;BME280;4062;49.844;8.120;2022-10-04T04:34:01;99966.88;;;16.21;57.24
8039;BME280;4062;49.844;8.120;2022-10-04T04:36:05;99966.88;;;16.21;57.27
8039;BME280;4062;49.844;8.120;2022-10-04T04:38:19;99963.34;;;16.21;57.37
8039;BME280;4062;49.844;8.120;2022-10-04T04:40:24;99966.88;;;16.21;57.11
8039;BME280;4062;49.844;8.120;2022-10-04T04:42:32;99964.19;;;16.21;57.28
8039;BME280;4062;49.844;8.120;2022-10-04T04:46:49;99964.19;;;16.21;57.01
8039;BME280;4062;49.844;8.120;2022-10-04T04:49:02;99961.53;;;16.21;57.20
8039;BME280;4062;49.844;8.120;2022-10-04T04:51:04;99956.19;;;16.21;57.14
8039;BME280;4062;49.844;8.120;2022-10-04T04:53:13;99958.88;;;16.21;57.35
8039;BME280;4062;49.844;8.120;2022-10-04T04:55:28;99958.03;;;16.21;56.98
8039;BME280;4062;49.844;8.120;2022-10-04T04:57:32;99954.44;;;16.22;57.29
8039;BME280;4062;49.844;8.120;2022-10-04T04:59:33;99961.53;;;16.21;57.26
8039;BME280;4062;49.844;8.120;2022-10-04T05:01:47;99955.34;;;16.21;57.25
8039;BME280;4062;49.844;8.120;2022-10-04T05:06:25;99950.88;;;16.21;57.21
8039;BME280;4062;49.844;8.120;2022-10-04T05:08:29;99942.88;;;16.21;57.15
8039;BME280;4062;49.844;8.120;2022-10-04T05:10:32;99939.34;;;16.21;57.27
8039;BME280;4062;49.844;8.120;2022-10-04T05:12:33;99942.88;;;16.21;57.22
8039;BME280;4062;49.844;8.120;2022-10-04T05:14:38;99937.53;;;16.21;57.28
8039;BME280;4062;49.844;8.120;2022-10-04T05:16:52;99940.22;;;16.21;57.14
8039;BME280;4062;49.844;8.120;2022-10-04T05:19:23;99937.53;;;16.21;57.27
8039;BME280;4062;49.844;8.120;2022-10-04T05:21:29;99939.34;;;16.21;57.37
8039;BME280;4062;49.844;8.120;2022-10-04T05:23:32;99937.53;;;16.21;57.26
8039;BME280;4062;49.844;8.120;2022-10-04T05:25:34;99944.69;;;16.21;57.24
8039;BME280;4062;49.844;8.120;2022-10-04T05:27:38;99942.03;;;16.21;57.33
8039;BME280;4062;49.844;8.120;2022-10-04T05:29:57;99956.19;;;16.21;57.19
8039;BME280;4062;49.844;8.120;2022-10-04T05:34:39;99956.19;;;16.21;57.31
8039;BME280;4062;49.844;8.120;2022-10-04T05:36:57;99966.88;;;16.21;57.44
8039;BME280;4062;49.844;8.120;2022-10-04T05:39:21;99975.75;;;16.22;57.31
8039;BME280;4062;49.844;8.120;2022-10-04T05:41:55;99976.63;;;16.22;57.28
8039;BME280;4062;49.844;8.120;2022-10-04T05:43:57;99968.69;;;16.21;57.19
8039;BME280;4062;49.844;8.120;2022-10-04T05:48:23;99968.69;;;16.21;57.25
8039;BME280;4062;49.844;8.120;2022-10-04T05:50:37;99974.88;;;16.21;57.15
8039;BME280;4062;49.844;8.120;2022-10-04T05:52:42;99967.75;;;16.22;57.14
8039;BME280;4062;49.844;8.120;2022-10-04T05:54:43;99971.34;;;16.21;57.21
8039;BME280;4062;49.844;8.120;2022-10-04T05:57:19;99961.53;;;16.21;57.20
8039;BME280;4062;49.844;8.120;2022-10-04T06:00:01;99960.72;;;16.19;57.19
8039;BME280;4062;49.844;8.120;2022-10-04T06:02:35;99961.53;;;16.21;57.15
8039;BME280;4062;49.844;8.120;2022-10-04T06:07:29;99970.47;;;16.20;57.22
8039;BME280;4062;49.844;8.120;2022-10-04T06:15:01;99965.13;;;16.20;57.41
8039;BME280;4062;49.844;8.120;2022-10-04T06:22:20;99965.13;;;16.20;57.20
8039;BME280;4062;49.844;8.120;2022-10-04T06:24:29;99970.47;;;16.20;57.23
8039;BME280;4062;49.844;8.120;2022-10-04T06:26:43;99969.53;;;16.21;56.88
8039;BME280;4062;49.844;8.120;2022-10-04T06:28:53;99978.47;;;16.20;57.11
8039;BME280;4062;49.844;8.120;2022-10-04T06:41:15;99993.59;;;16.20;57.26
8039;BME280;4062;49.844;8.120;2022-10-04T06:44:01;99996.25;;;16.20;57.27
8039;BME280;4062;49.844;8.120;2022-10-04T06:55:49;99999.78;;;16.20;57.14
8039;BME280;4062;49.844;8.120;2022-10-04T07:00:43;99996.25;;;16.20;57.20
8039;BME280;4062;49.844;8.120;2022-10-04T07:03:10;99997.13;;;16.20;57.35
8039;BME280;4062;49.844;8.120;2022-10-04T07:05:34;99982.00;;;16.21;57.31
8039;BME280;4062;49.844;8.120;2022-10-04T07:07:45;99983.78;;;16.20;57.26
8039;BME280;4062;49.844;8.120;2022-10-04T07:10:25;99978.47;;;16.20;57.29
8039;BME280;4062;49.844;8.120;2022-10-04T07:12:31;99980.28;;;16.20;57.01
8039;BME280;4062;49.844;8.120;2022-10-04T07:14:37;99992.69;;;16.21;57.19
8039;BME280;4062;49.844;8.120;2022-10-04T07:16:51;99986.47;;;16.20;57.23
8039;BME280;4062;49.844;8.120;2022-10-04T07:21:20;99986.47;;;16.20;57.29
8039;BME280;4062;49.844;8.120;2022-10-04T07:23:29;99985.59;;;16.20;57.32
8039;BME280;4062;49.844;8.120;2022-10-04T07:25:41;99990.88;;;16.21;57.22
8039;BME280;4062;49.844;8.120;2022-10-04T07:28:13;99993.59;;;16.20;57.10
8039;BME280;4062;49.844;8.120;2022-10-04T07:31:41;99982.03;;;16.19;57.24
8039;BME280;4062;49.844;8.120;2022-10-04T07:33:26;99986.47;;;16.20;57.28
8039;BME280;4062;49.844;8.120;2022-10-04T07:35:42;99986.47;;;16.20;57.25
8039;BME280;4062;49.844;8.120;2022-10-04T07:40:41;99985.59;;;16.20;57.27
8039;BME280;4062;49.844;8.120;2022-10-04T07:42:53;99995.34;;;16.21;57.37
8039;BME280;4062;49.844;8.120;2022-10-04T07:45:04;99998.94;;;16.20;57.17
8039;BME280;4062;49.844;8.120;2022-10-04T07:47:22;100001.59;;;16.20;57.66
8039;BME280;4062;49.844;8.120;2022-10-04T07:49:25;99994.47;;;16.20;57.16
8039;BME280;4062;49.844;8.120;2022-10-04T07:51:39;99981.13;;;16.20;57.13
8039;BME280;4062;49.844;8.120;2022-10-04T07:54:03;99974.88;;;16.21;57.17
8039;BME280;4062;49.844;8.120;2022-10-04T08:02:12;99991.78;;;16.20;57.25
8039;BME280;4062;49.844;8.120;2022-10-04T08:07:02;99981.13;;;16.20;57.18
8039;BME280;4062;49.844;8.120;2022-10-04T08:09:57;99983.78;;;16.20;57.12
8039;BME280;4062;49.844;8.120;2022-10-04T08:12:08;99997.13;;;16.20;57.23
8039;BME280;4062;49.844;8.120;2022-10-04T08:19:42;99987.38;;;16.19;57.33
8039;BME280;4062;49.844;8.120;2022-10-04T08:55:35;99987.34;;;16.21;57.28
8039;BME280;4062;49.844;8.120;2022-10-04T08:58:00;99985.53;;;16.21;57.13
8039;BME280;4062;49.844;8.120;2022-10-04T09:10:47;99992.69;;;16.21;57.02
8039;BME280;4062;49.844;8.120;2022-10-04T09:23:05;99975.78;;;16.20;57.23
8039;BME280;4062;49.844;8.120;2022-10-04T09:25:21;99977.59;;;16.20;57.22
8039;BME280;4062;49.844;8.120;2022-10-04T09:30:22;99978.41;;;16.22;56.88
8039;BME280;4062;49.844;8.120;2022-10-04T09:35:44;99980.19;;;16.21;57.11
8039;BME280;4062;49.844;8.120;2022-10-04T09:38:19;99974.88;;;16.21;57.05
8039;BME280;4062;49.844;8.120;2022-10-04T09:42:59;99980.28;;;16.20;57.25
8039;BME280;4062;49.844;8.120;2022-10-04T09:50:51;99980.19;;;16.21;57.13
8039;BME280;4062;49.844;8.120;2022-10-04T10:01:24;99969.53;;;16.21;57.07
8039;BME280;4062;49.844;8.120;2022-10-04T10:03:56;99964.19;;;16.21;57.19
8039;BME280;4062;49.844;8.120;2022-10-04T10:06:47;99959.75;;;16.22;57.22
8039;BME280;4062;49.844;8.120;2022-10-04T10:09:22;99958.88;;;16.21;57.18
8039;BME280;4062;49.844;8.120;2022-10-04T10:15:06;99962.44;;;16.22;57.15
8039;BME280;4062;49.844;8.120;2022-10-04T10:17:45;99965.09;;;16.22;57.25
8039;BME280;4062;49.844;8.120;2022-10-04T10:22:58;99973.09;;;16.22;57.17
8039;BME280;4062;49.844;8.120;2022-10-04T10:25:11;99969.53;;;16.21;57.09
8039;BME280;4062;49.844;8.120;2022-10-04T10:48:00;99972.16;;;16.23;57.18
8039;BME280;4062;49.844;8.120;2022-10-04T10:50:50;99974.84;;;16.23;57.13
8039;BME280;4062;49.844;8.120;2022-10-04T11:00:23;99981.09;;;16.22;57.20
8039;BME280;4062;49.844;8.120;2022-10-04T11:07:23;99981.94;;;16.22;57.15
8039;BME280;4062;49.844;8.120;2022-10-04T11:09:58;99977.50;;;16.23;57.33
8039;BME280;4062;49.844;8.120;2022-10-04T11:12:54;99972.19;;;16.21;57.20
8039;BME280;4062;49.844;8.120;2022-10-04T11:28:18;99965.94;;;16.22;57.20
8039;BME280;4062;49.844;8.120;2022-10-04T11:30:25;99956.19;;;16.21;57.25
8039;BME280;4062;49.844;8.120;2022-10-04T11:33:28;99956.19;;;16.21;57.13
8039;BME280;4062;49.844;8.120;2022-10-04T11:41:12;99958.88;;;16.21;57.12
8039;BME280;4062;49.844;8.120;2022-10-04T11:47:23;99942.03;;;16.21;57.01
8039;BME280;4062;49.844;8.120;2022-10-04T12:04:35;99918.03;;;16.21;57.11
8039;BME280;4062;49.844;8.120;2022-10-04T12:22:21;99898.47;;;16.20;57.07
8039;BME280;4062;49.844;8.120;2022-10-04T12:24:56;99902.88;;;16.21;57.19
8039;BME280;4062;49.844;8.120;2022-10-04T12:27:33;99899.38;;;16.21;57.20
8039;BME280;4062;49.844;8.120;2022-10-04T12:34:59;99887.81;;;16.20;57.02
8039;BME280;4062;49.844;8.120;2022-10-04T12:39:46;99885.16;;;16.20;57.22
8039;BME280;4062;49.844;8.120;2022-10-04T12:44:45;99870.06;;;16.19;57.20
8039;BME280;4062;49.844;8.120;2022-10-04T12:50:06;99873.63;;;16.20;57.13
8039;BME280;4062;49.844;8.120;2022-10-04T12:52:22;99869.16;;;16.20;57.00
8039;BME280;4062;49.844;8.120;2022-10-04T12:54:41;99870.97;;;16.20;57.14
8039;BME280;4062;49.844;8.120;2022-10-04T13:06:19;99866.50;;;16.20;57.14
8039;BME280;4062;49.844;8.120;2022-10-04T13:11:35;99864.75;;;16.19;57.13
8039;BME280;4062;49.844;8.120;2022-10-04T13:14:28;99867.41;;;16.19;57.10
8039;BME280;4062;49.844;8.120;2022-10-04T13:17:08;99856.75;;;16.19;57.16
8039;BME280;4062;49.844;8.120;2022-10-04T13:24:30;99854.97;;;16.20;57.03
8039;BME280;4062;49.844;8.120;2022-10-04T13:27:05;99849.63;;;16.20;57.04
8039;BME280;4062;49.844;8.120;2022-10-04T13:29:57;99854.09;;;16.19;57.14
8039;BME280;4062;49.844;8.120;2022-10-04T13:32:10;99852.31;;;16.20;57.20
8039;BME280;4062;49.844;8.120;2022-10-04T13:34:53;99844.31;;;16.20;57.06
8039;BME280;4062;49.844;8.120;2022-10-04T13:45:14;99843.41;;;16.19;57.32
8039;BME280;4062;49.844;8.120;2022-10-04T13:55:37;99831.91;;;16.19;57.13
8039;BME280;4062;49.844;8.120;2022-10-04T13:58:30;99830.09;;;16.19;57.15
8039;BME280;4062;49.844;8.120;2022-10-04T14:09:44;99831.91;;;16.19;57.09
8039;BME280;4062;49.844;8.120;2022-10-04T14:18:01;99831.91;;;16.19;57.15
8039;BME280;4062;49.844;8.120;2022-10-04T14:20:58;99830.16;;;16.18;57.22
8039;BME280;4062;49.844;8.120;2022-10-04T14:26:42;99831.06;;;16.18;57.11
8039;BME280;4062;49.844;8.120;2022-10-04T14:31:22;99824.75;;;16.19;57.16
8039;BME280;4062;49.844;8.120;2022-10-04T14:36:46;99820.38;;;16.18;57.09
8039;BME280;4062;49.844;8.120;2022-10-04T14:44:59;99792.00;;;16.17;57.09
8039;BME280;4062;49.844;8.120;2022-10-04T14:47:30;99785.72;;;16.18;57.23
8039;BME280;4062;49.844;8.120;2022-10-04T14:50:05;99787.50;;;16.18;57.28
8039;BME280;4062;49.844;8.120;2022-10-04T14:52:52;99784.00;;;16.17;57.18
8039;BME280;4062;49.844;8.120;2022-10-04T14:58:14;99785.72;;;16.18;57.08
8039;BME280;4062;49.844;8.120;2022-10-04T15:00:52;99786.59;;;16.19;57.16
8039;BME280;4062;49.844;8.120;2022-10-04T15:03:28;99783.91;;;16.19;57.24
8039;BME280;4062;49.844;8.120;2022-10-04T15:05:43;99777.72;;;16.18;57.23
8039;BME280;4062;49.844;8.120;2022-10-04T15:10:34;99785.72;;;16.18;57.20
8039;BME280;4062;49.844;8.120;2022-10-04T15:17:34;99771.50;;;16.18;57.13
8039;BME280;4062;49.844;8.120;2022-10-04T15:22:26;99762.66;;;16.17;57.20
8039;BME280;4062;49.844;8.120;2022-10-04T15:27:20;99768.00;;;16.17;57.11
8039;BME280;4062;49.844;8.120;2022-10-04T15:32:43;99767.06;;;16.18;57.19
8039;BME280;4062;49.844;8.120;2022-10-04T15:42:09;99754.66;;;16.17;57.11
8039;BME280;4062;49.844;8.120;2022-10-04T15:45:02;99749.34;;;16.17;57.22
8039;BME280;4062;49.844;8.120;2022-10-04T15:50:06;99760.84;;;16.18;57.15
8039;BME280;4062;49.844;8.120;2022-10-04T15:55:47;99756.41;;;16.18;57.29
8039;BME280;4062;49.844;8.120;2022-10-04T16:01:12;99757.34;;;16.17;57.15
8039;BME280;4062;49.844;8.120;2022-10-04T16:03:41;99760.00;;;16.17;57.29
8039;BME280;4062;49.844;8.120;2022-10-04T16:08:41;99741.34;;;16.17;57.09
8039;BME280;4062;49.844;8.120;2022-10-04T16:15:45;99746.66;;;16.17;57.05
8039;BME280;4062;49.844;8.120;2022-10-04T16:23:32;99712.00;;;16.17;57.22
8039;BME280;4062;49.844;8.120;2022-10-04T16:25:37;99719.13;;;16.17;57.29
8039;BME280;4062;49.844;8.120;2022-10-04T16:32:38;99720.94;;;16.16;57.22
8039;BME280;4062;49.844;8.120;2022-10-04T16:39:12;99718.28;;;16.16;57.13
8039;BME280;4062;49.844;8.120;2022-10-04T16:41:58;99718.28;;;16.16;56.98
8039;BME280;4062;49.844;8.120;2022-10-04T16:44:02;99717.38;;;16.16;57.11
8039;BME280;4062;49.844;8.120;2022-10-04T16:48:38;99723.53;;;16.18;57.08
8039;BME280;4062;49.844;8.120;2022-10-04T16:55:56;99728.94;;;16.16;57.02
8039;BME280;4062;49.844;8.120;2022-10-04T17:00:35;99734.25;;;16.16;57.24
8039;BME280;4062;49.844;8.120;2022-10-04T17:05:35;99740.44;;;16.17;57.36
8039;BME280;4062;49.844;8.120;2022-10-04T17:10:43;99750.25;;;16.16;57.24
8039;BME280;4062;49.844;8.120;2022-10-04T17:15:37;99751.13;;;16.17;57.18
8039;BME280;4062;49.844;8.120;2022-10-04T17:20:28;99756.44;;;16.17;57.18
8039;BME280;4062;49.844;8.120;2022-10-04T17:27:46;99755.59;;;16.16;57.09
8039;BME280;4062;49.844;8.120;2022-10-04T17:37:14;99760.94;;;16.16;57.21
8039;BME280;4062;49.844;8.120;2022-10-04T17:39:40;99755.59;;;16.16;57.21
8039;BME280;4062;49.844;8.120;2022-10-04T17:48:12;99768.03;;;16.16;57.23
8039;BME280;4062;49.844;8.120;2022-10-04T17:50:40;99769.78;;;16.17;57.25
8039;BME280;4062;49.844;8.120;2022-10-04T17:53:10;99766.25;;;16.16;57.30
8039;BME280;4062;49.844;8.120;2022-10-04T17:55:54;99773.38;;;16.16;57.12
8039;BME280;4062;49.844;8.120;2022-10-04T17:58:59;99776.03;;;16.16;57.16
8039;BME280;4062;49.844;8.120;2022-10-04T18:01:04;99771.59;;;16.16;57.19
8039;BME280;4062;49.844;8.120;2022-10-04T18:03:38;99774.25;;;16.16;57.28
8039;BME280;4062;49.844;8.120;2022-10-04T18:12:47;99771.59;;;16.16;57.18
8039;BME280;4062;49.844;8.120;2022-10-04T18:17:36;99764.53;;;16.15;57.05
8039;BME280;4062;49.844;8.120;2022-10-04T18:21:51;99756.53;;;16.15;57.19
8039;BME280;4062;49.844;8.120;2022-10-04T18:26:16;99760.97;;;16.15;57.19
8039;BME280;4062;49.844;8.120;2022-10-04T18:28:21;99760.94;;;16.16;57.17
8039;BME280;4062;49.844;8.120;2022-10-04T18:30:22;99759.19;;;16.15;57.30
8039;BME280;4062;49.844;8.120;2022-10-04T18:34:28;99762.72;;;16.16;57.42
8039;BME280;4062;49.844;8.120;2022-10-04T18:36:50;99761.84;;;16.15;57.10
8039;BME280;4062;49.844;8.120;2022-10-04T18:39:16;99764.53;;;16.15;57.28
8039;BME280;4062;49.844;8.120;2022-10-04T18:41:20;99764.53;;;16.15;57.16
8039;BME280;4062;49.844;8.120;2022-10-04T18:43:34;99772.50;;;16.15;57.10
8039;BME280;4062;49.844;8.120;2022-10-04T18:45:35;99769.84;;;16.15;57.05
8039;BME280;4062;49.844;8.120;2022-10-04T18:47:39;99766.28;;;16.15;57.10
8039;BME280;4062;49.844;8.120;2022-10-04T18:49:49;99774.28;;;16.15;56.98
8039;BME280;4062;49.844;8.120;2022-10-04T18:52:03;99776.03;;;16.16;57.13
8039;BME280;4062;49.844;8.120;2022-10-04T18:59:32;99796.44;;;16.17;57.25
8039;BME280;4062;49.844;8.120;2022-10-04T19:07:17;99801.84;;;16.15;57.35
8039;BME280;4062;49.844;8.120;2022-10-04T19:09:38;99799.16;;;16.15;57.00
8039;BME280;4062;49.844;8.120;2022-10-04T19:12:07;99802.75;;;16.14;57.17
8039;BME280;4062;49.844;8.120;2022-10-04T19:16:46;99802.75;;;16.14;57.25
8039;BME280;4062;49.844;8.120;2022-10-04T19:23:42;99794.78;;;16.14;57.05
8039;BME280;4062;49.844;8.120;2022-10-04T19:25:56;99799.16;;;16.15;57.20
8039;BME280;4062;49.844;8.120;2022-10-04T19:28:19;99806.28;;;16.15;57.06
8039;BME280;4062;49.844;8.120;2022-10-04T19:30:30;99802.75;;;16.14;57.17
8039;BME280;4062;49.844;8.120;2022-10-04T19:37:11;99807.25;;;16.14;57.21
8039;BME280;4062;49.844;8.120;2022-10-04T19:44:17;99822.28;;;16.15;57.30
8039;BME280;4062;49.844;8.120;2022-10-04T19:46:45;99824.09;;;16.14;57.19
8039;BME280;4062;49.844;8.120;2022-10-04T19:48:50;99824.09;;;16.14;57.19
8039;BME280;4062;49.844;8.120;2022-10-04T19:51:00;99824.94;;;16.15;57.16
8039;BME280;4062;49.844;8.120;2022-10-04T19:53:20;99824.09;;;16.14;57.31
8039;BME280;4062;49.844;8.120;2022-10-04T19:55:56;99830.28;;;16.15;57.24
8039;BME280;4062;49.844;8.120;2022-10-04T20:00:27;99826.75;;;16.14;57.24
8039;BME280;4062;49.844;8.120;2022-10-04T20:02:28;99822.28;;;16.15;57.08
8039;BME280;4062;49.844;8.120;2022-10-04T20:04:28;99820.56;;;16.14;57.23
8039;BME280;4062;49.844;8.120;2022-10-04T20:06:46;99821.44;;;16.14;57.08
8039;BME280;4062;49.844;8.120;2022-10-04T20:08:51;99829.41;;;16.14;57.26
8039;BME280;4062;49.844;8.120;2022-10-04T20:11:21;99835.59;;;16.15;57.30
8039;BME280;4062;49.844;8.120;2022-10-04T20:13:24;99832.09;;;16.14;57.26
8039;BME280;4062;49.844;8.120;2022-10-04T20:17:35;99831.22;;;16.14;57.30
8039;BME280;4062;49.844;8.120;2022-10-04T20:19:39;99836.56;;;16.14;57.08
8039;BME280;4062;49.844;8.120;2022-10-04T20:21:40;99835.59;;;16.15;57.17
8039;BME280;4062;49.844;8.120;2022-10-04T20:31:56;99842.75;;;16.14;57.21